Haymount, North Carolina
Current Conditions -  °F | °C
As of 5:53 PM on Tuesday 27 Jan 2015 (Local Time) from KFAY Reporting Station
Clear Clear  
Wind Chill: 38°   Ceiling: Unl
Heat Index: 42°   Visibility: 10mi
Dew Point: 16°   Wind: 6mph
Humidity: 35%   Direction: 310°NW
Pressure: 29.86"   Gusts: NA
Location:  35.0522°N, 78.906°W
Report Text: KFAY 272253Z AUTO 31005KT 10SM CLR 06/M09 A2986 RMK AO2 SLP109 T00561089
Loading
Personal Weather Stations






























Interactive Weather Map New forecast layout! Learn more

10-Day Weather Forecast

Advertisements
Track Severe Weather on mobile